sensor_id;sensor_type;location;lat;lon;timestamp;P1;durP1;ratioP1;P2;durP2;ratioP2
36385;SDS011;24125;47.482;8.770;2022-11-02T00:01:36;4.38;;;2.25;;
36385;SDS011;24125;47.482;8.770;2022-11-02T00:04:11;5.80;;;2.50;;
36385;SDS011;24125;47.482;8.770;2022-11-02T00:06:45;6.28;;;2.78;;
36385;SDS011;24125;47.482;8.770;2022-11-02T00:09:18;5.28;;;2.00;;
36385;SDS011;24125;47.482;8.770;2022-11-02T00:11:51;4.30;;;2.45;;
36385;SDS011;24125;47.482;8.770;2022-11-02T00:14:25;8.15;;;2.55;;
36385;SDS011;24125;47.482;8.770;2022-11-02T00:16:59;3.40;;;2.40;;
36385;SDS011;24125;47.482;8.770;2022-11-02T00:19:32;3.97;;;2.00;;
36385;SDS011;24125;47.482;8.770;2022-11-02T00:22:06;4.68;;;2.25;;
36385;SDS011;24125;47.482;8.770;2022-11-02T00:24:49;6.38;;;2.35;;
36385;SDS011;24125;47.482;8.770;2022-11-02T00:27:30;5.18;;;2.08;;
36385;SDS011;24125;47.482;8.770;2022-11-02T00:30:07;3.63;;;2.25;;
36385;SDS011;24125;47.482;8.770;2022-11-02T00:32:43;6.55;;;2.50;;
36385;SDS011;24125;47.482;8.770;2022-11-02T00:35:19;5.00;;;2.78;;
36385;SDS011;24125;47.482;8.770;2022-11-02T00:37:55;9.43;;;2.60;;
36385;SDS011;24125;47.482;8.770;2022-11-02T00:40:28;10.27;;;2.55;;
36385;SDS011;24125;47.482;8.770;2022-11-02T00:43:04;3.42;;;2.30;;
36385;SDS011;24125;47.482;8.770;2022-11-02T00:45:39;6.25;;;2.22;;
36385;SDS011;24125;47.482;8.770;2022-11-02T00:48:18;4.13;;;2.22;;
36385;SDS011;24125;47.482;8.770;2022-11-02T00:50:51;4.18;;;2.17;;
36385;SDS011;24125;47.482;8.770;2022-11-02T00:53:24;3.22;;;2.13;;
36385;SDS011;24125;47.482;8.770;2022-11-02T00:55:57;4.13;;;2.20;;
36385;SDS011;24125;47.482;8.770;2022-11-02T00:58:30;5.15;;;2.45;;
36385;SDS011;24125;47.482;8.770;2022-11-02T01:01:04;5.30;;;2.10;;
36385;SDS011;24125;47.482;8.770;2022-11-02T01:03:38;12.50;;;2.20;;
36385;SDS011;24125;47.482;8.770;2022-11-02T01:06:12;5.10;;;2.50;;
36385;SDS011;24125;47.482;8.770;2022-11-02T01:08:46;5.15;;;2.60;;
36385;SDS011;24125;47.482;8.770;2022-11-02T01:11:22;4.60;;;2.45;;
36385;SDS011;24125;47.482;8.770;2022-11-02T01:13:56;5.88;;;2.60;;
36385;SDS011;24125;47.482;8.770;2022-11-02T01:16:30;4.50;;;2.47;;
36385;SDS011;24125;47.482;8.770;2022-11-02T01:19:03;6.72;;;2.53;;
36385;SDS011;24125;47.482;8.770;2022-11-02T01:21:36;3.78;;;2.35;;
36385;SDS011;24125;47.482;8.770;2022-11-02T01:24:09;6.07;;;2.40;;
36385;SDS011;24125;47.482;8.770;2022-11-02T01:26:42;5.53;;;2.30;;
36385;SDS011;24125;47.482;8.770;2022-11-02T01:29:15;5.88;;;2.55;;
36385;SDS011;24125;47.482;8.770;2022-11-02T01:31:49;4.43;;;2.17;;
36385;SDS011;24125;47.482;8.770;2022-11-02T01:34:24;4.60;;;2.05;;
36385;SDS011;24125;47.482;8.770;2022-11-02T01:36:57;4.57;;;2.42;;
36385;SDS011;24125;47.482;8.770;2022-11-02T01:39:30;5.43;;;2.13;;
36385;SDS011;24125;47.482;8.770;2022-11-02T01:42:03;5.32;;;2.28;;
36385;SDS011;24125;47.482;8.770;2022-11-02T01:44:37;4.25;;;2.17;;
36385;SDS011;24125;47.482;8.770;2022-11-02T01:47:15;8.93;;;2.38;;
36385;SDS011;24125;47.482;8.770;2022-11-02T01:49:52;4.55;;;2.28;;
36385;SDS011;24125;47.482;8.770;2022-11-02T01:52:30;4.85;;;2.45;;
36385;SDS011;24125;47.482;8.770;2022-11-02T01:55:08;3.13;;;2.40;;
36385;SDS011;24125;47.482;8.770;2022-11-02T01:57:44;5.07;;;2.30;;
36385;SDS011;24125;47.482;8.770;2022-11-02T02:00:20;3.53;;;2.00;;
36385;SDS011;24125;47.482;8.770;2022-11-02T02:02:58;3.85;;;2.00;;
36385;SDS011;24125;47.482;8.770;2022-11-02T02:05:38;3.80;;;2.40;;
36385;SDS011;24125;47.482;8.770;2022-11-02T02:08:15;3.72;;;2.22;;
36385;SDS011;24125;47.482;8.770;2022-11-02T02:10:53;3.10;;;1.92;;
36385;SDS011;24125;47.482;8.770;2022-11-02T02:13:28;7.75;;;2.47;;
36385;SDS011;24125;47.482;8.770;2022-11-02T02:16:03;5.35;;;2.33;;
36385;SDS011;24125;47.482;8.770;2022-11-02T02:21:21;3.60;;;1.77;;
36385;SDS011;24125;47.482;8.770;2022-11-02T02:24:13;3.95;;;2.05;;
36385;SDS011;24125;47.482;8.770;2022-11-02T02:27:08;3.88;;;2.20;;
36385;SDS011;24125;47.482;8.770;2022-11-02T02:29:51;6.70;;;2.25;;
36385;SDS011;24125;47.482;8.770;2022-11-02T02:32:37;6.03;;;1.77;;
36385;SDS011;24125;47.482;8.770;2022-11-02T02:35:18;4.05;;;1.80;;
36385;SDS011;24125;47.482;8.770;2022-11-02T02:37:58;3.67;;;1.88;;
36385;SDS011;24125;47.482;8.770;2022-11-02T02:40:34;3.67;;;1.60;;
36385;SDS011;24125;47.482;8.770;2022-11-02T02:43:12;3.55;;;1.60;;
36385;SDS011;24125;47.482;8.770;2022-11-02T02:45:52;3.47;;;1.20;;
36385;SDS011;24125;47.482;8.770;2022-11-02T02:48:28;2.90;;;1.45;;
36385;SDS011;24125;47.482;8.770;2022-11-02T02:51:03;3.38;;;1.40;;
36385;SDS011;24125;47.482;8.770;2022-11-02T02:53:40;2.47;;;1.48;;
36385;SDS011;24125;47.482;8.770;2022-11-02T02:56:18;3.45;;;1.30;;
36385;SDS011;24125;47.482;8.770;2022-11-02T02:58:55;4.60;;;1.40;;
36385;SDS011;24125;47.482;8.770;2022-11-02T03:01:34;9.55;;;1.92;;
36385;SDS011;24125;47.482;8.770;2022-11-02T03:04:11;2.97;;;1.38;;
36385;SDS011;24125;47.482;8.770;2022-11-02T03:06:45;4.35;;;1.30;;
36385;SDS011;24125;47.482;8.770;2022-11-02T03:09:22;3.50;;;1.50;;
36385;SDS011;24125;47.482;8.770;2022-11-02T03:12:05;6.75;;;1.70;;
36385;SDS011;24125;47.482;8.770;2022-11-02T03:14:49;3.63;;;1.63;;
36385;SDS011;24125;47.482;8.770;2022-11-02T03:17:38;3.50;;;1.50;;
36385;SDS011;24125;47.482;8.770;2022-11-02T03:20:19;5.07;;;1.60;;
36385;SDS011;24125;47.482;8.770;2022-11-02T03:23:00;4.97;;;1.52;;
36385;SDS011;24125;47.482;8.770;2022-11-02T03:25:43;4.60;;;1.80;;
36385;SDS011;24125;47.482;8.770;2022-11-02T03:28:25;13.30;;;2.13;;
36385;SDS011;24125;47.482;8.770;2022-11-02T03:31:06;6.75;;;1.73;;
36385;SDS011;24125;47.482;8.770;2022-11-02T03:33:48;3.08;;;1.63;;
36385;SDS011;24125;47.482;8.770;2022-11-02T03:36:29;2.95;;;1.50;;
36385;SDS011;24125;47.482;8.770;2022-11-02T03:39:07;3.58;;;1.52;;
36385;SDS011;24125;47.482;8.770;2022-11-02T03:41:43;3.85;;;1.60;;
36385;SDS011;24125;47.482;8.770;2022-11-02T03:44:19;4.85;;;1.58;;
36385;SDS011;24125;47.482;8.770;2022-11-02T03:46:56;3.33;;;1.77;;
36385;SDS011;24125;47.482;8.770;2022-11-02T03:49:32;9.30;;;1.90;;
36385;SDS011;24125;47.482;8.770;2022-11-02T03:52:07;5.95;;;1.70;;
36385;SDS011;24125;47.482;8.770;2022-11-02T03:54:47;3.72;;;1.70;;
36385;SDS011;24125;47.482;8.770;2022-11-02T03:57:32;3.67;;;1.60;;
36385;SDS011;24125;47.482;8.770;2022-11-02T04:00:09;7.78;;;1.83;;
36385;SDS011;24125;47.482;8.770;2022-11-02T04:02:45;3.00;;;1.63;;
36385;SDS011;24125;47.482;8.770;2022-11-02T04:05:27;9.05;;;1.75;;
36385;SDS011;24125;47.482;8.770;2022-11-02T04:08:01;3.42;;;1.80;;
36385;SDS011;24125;47.482;8.770;2022-11-02T04:10:54;3.47;;;1.50;;
36385;SDS011;24125;47.482;8.770;2022-11-02T04:13:45;4.40;;;1.90;;
36385;SDS011;24125;47.482;8.770;2022-11-02T04:16:35;3.53;;;1.55;;
36385;SDS011;24125;47.482;8.770;2022-11-02T04:19:09;6.85;;;1.50;;
36385;SDS011;24125;47.482;8.770;2022-11-02T04:22:01;3.90;;;1.55;;
36385;SDS011;24125;47.482;8.770;2022-11-02T04:24:52;3.83;;;1.80;;
36385;SDS011;24125;47.482;8.770;2022-11-02T04:27:43;4.22;;;1.50;;
36385;SDS011;24125;47.482;8.770;2022-11-02T04:30:18;3.05;;;1.60;;
36385;SDS011;24125;47.482;8.770;2022-11-02T04:32:52;5.30;;;1.90;;
36385;SDS011;24125;47.482;8.770;2022-11-02T04:35:43;6.13;;;2.15;;
36385;SDS011;24125;47.482;8.770;2022-11-02T04:38:17;3.90;;;1.85;;
36385;SDS011;24125;47.482;8.770;2022-11-02T04:41:08;6.25;;;1.88;;
36385;SDS011;24125;47.482;8.770;2022-11-02T04:43:59;3.92;;;1.98;;
36385;SDS011;24125;47.482;8.770;2022-11-02T04:46:32;2.65;;;1.73;;
36385;SDS011;24125;47.482;8.770;2022-11-02T04:49:07;1.75;;;1.33;;
36385;SDS011;24125;47.482;8.770;2022-11-02T04:51:43;3.22;;;1.83;;
36385;SDS011;24125;47.482;8.770;2022-11-02T04:54:21;5.03;;;1.63;;
36385;SDS011;24125;47.482;8.770;2022-11-02T04:56:55;5.03;;;1.80;;
36385;SDS011;24125;47.482;8.770;2022-11-02T04:59:28;4.43;;;1.83;;
36385;SDS011;24125;47.482;8.770;2022-11-02T05:02:01;2.85;;;1.65;;
36385;SDS011;24125;47.482;8.770;2022-11-02T05:04:34;2.95;;;1.70;;
36385;SDS011;24125;47.482;8.770;2022-11-02T05:07:07;3.67;;;1.80;;
36385;SDS011;24125;47.482;8.770;2022-11-02T05:09:43;4.72;;;1.92;;
36385;SDS011;24125;47.482;8.770;2022-11-02T05:12:16;3.58;;;1.75;;
36385;SDS011;24125;47.482;8.770;2022-11-02T05:14:49;8.18;;;2.33;;
36385;SDS011;24125;47.482;8.770;2022-11-02T05:17:22;6.60;;;1.65;;
36385;SDS011;24125;47.482;8.770;2022-11-02T05:19:55;4.35;;;1.98;;
36385;SDS011;24125;47.482;8.770;2022-11-02T05:22:29;4.10;;;1.70;;
36385;SDS011;24125;47.482;8.770;2022-11-02T05:25:04;4.80;;;2.20;;
36385;SDS011;24125;47.482;8.770;2022-11-02T05:27:38;3.88;;;1.63;;
36385;SDS011;24125;47.482;8.770;2022-11-02T05:30:11;3.17;;;1.75;;
36385;SDS011;24125;47.482;8.770;2022-11-02T05:32:44;3.20;;;1.70;;
36385;SDS011;24125;47.482;8.770;2022-11-02T05:35:17;5.60;;;1.92;;
36385;SDS011;24125;47.482;8.770;2022-11-02T05:37:51;7.38;;;1.80;;
36385;SDS011;24125;47.482;8.770;2022-11-02T05:40:27;3.42;;;1.70;;
36385;SDS011;24125;47.482;8.770;2022-11-02T05:43:00;3.33;;;1.55;;
36385;SDS011;24125;47.482;8.770;2022-11-02T05:45:35;4.97;;;1.80;;
36385;SDS011;24125;47.482;8.770;2022-11-02T05:48:08;6.03;;;2.30;;
36385;SDS011;24125;47.482;8.770;2022-11-02T05:50:41;4.65;;;1.85;;
36385;SDS011;24125;47.482;8.770;2022-11-02T05:53:14;4.72;;;1.75;;
36385;SDS011;24125;47.482;8.770;2022-11-02T05:55:49;3.90;;;1.90;;
36385;SDS011;24125;47.482;8.770;2022-11-02T05:58:22;5.63;;;1.95;;
36385;SDS011;24125;47.482;8.770;2022-11-02T06:00:57;2.20;;;1.63;;
36385;SDS011;24125;47.482;8.770;2022-11-02T06:03:31;3.58;;;1.67;;
36385;SDS011;24125;47.482;8.770;2022-11-02T06:06:05;4.95;;;2.10;;
36385;SDS011;24125;47.482;8.770;2022-11-02T06:08:39;4.68;;;2.00;;
36385;SDS011;24125;47.482;8.770;2022-11-02T06:11:14;2.47;;;1.60;;
36385;SDS011;24125;47.482;8.770;2022-11-02T06:13:48;5.05;;;1.73;;
36385;SDS011;24125;47.482;8.770;2022-11-02T06:16:22;3.25;;;2.10;;
36385;SDS011;24125;47.482;8.770;2022-11-02T06:18:56;4.85;;;1.90;;
36385;SDS011;24125;47.482;8.770;2022-11-02T06:21:29;5.45;;;2.28;;
36385;SDS011;24125;47.482;8.770;2022-11-02T06:24:02;2.83;;;1.60;;
36385;SDS011;24125;47.482;8.770;2022-11-02T06:26:37;2.85;;;1.88;;
36385;SDS011;24125;47.482;8.770;2022-11-02T06:29:09;3.38;;;1.63;;
36385;SDS011;24125;47.482;8.770;2022-11-02T06:31:42;3.95;;;2.13;;
36385;SDS011;24125;47.482;8.770;2022-11-02T06:34:15;1.92;;;1.50;;
36385;SDS011;24125;47.482;8.770;2022-11-02T06:36:48;2.35;;;1.55;;
36385;SDS011;24125;47.482;8.770;2022-11-02T06:39:22;3.38;;;1.77;;
36385;SDS011;24125;47.482;8.770;2022-11-02T06:41:57;3.10;;;1.85;;
36385;SDS011;24125;47.482;8.770;2022-11-02T06:44:31;3.78;;;1.98;;
36385;SDS011;24125;47.482;8.770;2022-11-02T06:47:04;3.08;;;1.60;;
36385;SDS011;24125;47.482;8.770;2022-11-02T06:49:37;4.72;;;2.08;;
36385;SDS011;24125;47.482;8.770;2022-11-02T06:52:10;3.90;;;1.90;;
36385;SDS011;24125;47.482;8.770;2022-11-02T06:54:43;4.25;;;2.05;;
36385;SDS011;24125;47.482;8.770;2022-11-02T06:57:17;4.03;;;1.95;;
36385;SDS011;24125;47.482;8.770;2022-11-02T06:59:50;4.55;;;2.10;;
36385;SDS011;24125;47.482;8.770;2022-11-02T07:02:24;4.05;;;1.98;;
36385;SDS011;24125;47.482;8.770;2022-11-02T07:04:57;3.50;;;2.00;;
36385;SDS011;24125;47.482;8.770;2022-11-02T07:07:31;4.80;;;1.98;;
36385;SDS011;24125;47.482;8.770;2022-11-02T07:10:04;5.38;;;2.22;;
36385;SDS011;24125;47.482;8.770;2022-11-02T07:12:42;3.83;;;2.08;;
36385;SDS011;24125;47.482;8.770;2022-11-02T07:15:16;4.70;;;2.05;;
36385;SDS011;24125;47.482;8.770;2022-11-02T07:17:49;3.70;;;2.13;;
36385;SDS011;24125;47.482;8.770;2022-11-02T07:20:22;4.35;;;2.30;;
36385;SDS011;24125;47.482;8.770;2022-11-02T07:22:56;3.30;;;2.13;;
36385;SDS011;24125;47.482;8.770;2022-11-02T07:25:30;5.03;;;2.17;;
36385;SDS011;24125;47.482;8.770;2022-11-02T07:28:06;4.70;;;2.00;;
36385;SDS011;24125;47.482;8.770;2022-11-02T07:30:39;6.18;;;2.65;;
36385;SDS011;24125;47.482;8.770;2022-11-02T07:33:12;4.10;;;2.33;;
36385;SDS011;24125;47.482;8.770;2022-11-02T07:35:45;3.00;;;2.13;;
36385;SDS011;24125;47.482;8.770;2022-11-02T07:38:18;5.35;;;2.50;;
36385;SDS011;24125;47.482;8.770;2022-11-02T07:40:52;6.13;;;3.10;;
36385;SDS011;24125;47.482;8.770;2022-11-02T07:43:26;4.63;;;2.78;;
36385;SDS011;24125;47.482;8.770;2022-11-02T07:46:00;9.27;;;2.78;;
36385;SDS011;24125;47.482;8.770;2022-11-02T07:48:33;5.47;;;2.38;;
36385;SDS011;24125;47.482;8.770;2022-11-02T07:51:07;4.70;;;2.15;;
36385;SDS011;24125;47.482;8.770;2022-11-02T07:53:42;4.38;;;2.50;;
36385;SDS011;24125;47.482;8.770;2022-11-02T07:56:15;5.10;;;2.42;;
36385;SDS011;24125;47.482;8.770;2022-11-02T07:58:49;5.82;;;2.22;;
36385;SDS011;24125;47.482;8.770;2022-11-02T08:01:23;5.72;;;2.38;;
36385;SDS011;24125;47.482;8.770;2022-11-02T08:03:58;4.55;;;2.65;;
36385;SDS011;24125;47.482;8.770;2022-11-02T08:06:32;5.50;;;2.47;;
36385;SDS011;24125;47.482;8.770;2022-11-02T08:09:06;5.05;;;2.45;;
36385;SDS011;24125;47.482;8.770;2022-11-02T08:11:39;4.72;;;2.47;;
36385;SDS011;24125;47.482;8.770;2022-11-02T08:14:13;5.93;;;2.80;;
36385;SDS011;24125;47.482;8.770;2022-11-02T08:16:49;5.75;;;2.63;;
36385;SDS011;24125;47.482;8.770;2022-11-02T08:19:23;5.65;;;2.55;;
36385;SDS011;24125;47.482;8.770;2022-11-02T08:21:56;5.93;;;2.47;;
36385;SDS011;24125;47.482;8.770;2022-11-02T08:24:28;7.10;;;2.75;;
36385;SDS011;24125;47.482;8.770;2022-11-02T08:27:02;4.78;;;2.40;;
36385;SDS011;24125;47.482;8.770;2022-11-02T08:29:37;8.45;;;2.75;;
36385;SDS011;24125;47.482;8.770;2022-11-02T08:32:09;6.82;;;2.70;;
36385;SDS011;24125;47.482;8.770;2022-11-02T08:34:44;4.40;;;2.30;;
36385;SDS011;24125;47.482;8.770;2022-11-02T08:37:18;6.43;;;2.83;;
36385;SDS011;24125;47.482;8.770;2022-11-02T08:39:51;6.18;;;2.53;;
36385;SDS011;24125;47.482;8.770;2022-11-02T08:42:25;6.63;;;2.53;;
36385;SDS011;24125;47.482;8.770;2022-11-02T08:44:59;6.10;;;2.55;;
36385;SDS011;24125;47.482;8.770;2022-11-02T08:47:32;6.20;;;2.40;;
36385;SDS011;24125;47.482;8.770;2022-11-02T08:50:05;10.60;;;2.42;;
36385;SDS011;24125;47.482;8.770;2022-11-02T08:52:39;4.32;;;2.42;;
36385;SDS011;24125;47.482;8.770;2022-11-02T08:55:12;7.15;;;2.15;;
36385;SDS011;24125;47.482;8.770;2022-11-02T08:57:45;4.15;;;2.17;;
36385;SDS011;24125;47.482;8.770;2022-11-02T09:00:20;4.25;;;1.98;;
36385;SDS011;24125;47.482;8.770;2022-11-02T09:02:58;2.85;;;1.60;;
36385;SDS011;24125;47.482;8.770;2022-11-02T09:05:33;7.35;;;2.00;;
36385;SDS011;24125;47.482;8.770;2022-11-02T09:08:08;6.85;;;1.60;;
36385;SDS011;24125;47.482;8.770;2022-11-02T09:10:43;3.22;;;1.20;;
36385;SDS011;24125;47.482;8.770;2022-11-02T09:13:18;3.63;;;1.30;;
36385;SDS011;24125;47.482;8.770;2022-11-02T09:15:57;5.65;;;1.38;;
36385;SDS011;24125;47.482;8.770;2022-11-02T09:18:31;4.65;;;1.13;;
36385;SDS011;24125;47.482;8.770;2022-11-02T09:21:04;9.30;;;1.90;;
36385;SDS011;24125;47.482;8.770;2022-11-02T09:23:37;4.22;;;1.50;;
36385;SDS011;24125;47.482;8.770;2022-11-02T09:26:10;6.07;;;1.73;;
36385;SDS011;24125;47.482;8.770;2022-11-02T09:28:43;4.90;;;2.03;;
36385;SDS011;24125;47.482;8.770;2022-11-02T09:31:17;5.90;;;1.80;;
36385;SDS011;24125;47.482;8.770;2022-11-02T09:33:50;2.97;;;1.40;;
36385;SDS011;24125;47.482;8.770;2022-11-02T09:36:23;4.30;;;1.30;;
36385;SDS011;24125;47.482;8.770;2022-11-02T09:38:57;3.97;;;1.48;;
36385;SDS011;24125;47.482;8.770;2022-11-02T09:41:31;2.83;;;1.17;;
36385;SDS011;24125;47.482;8.770;2022-11-02T09:44:09;3.03;;;1.13;;
36385;SDS011;24125;47.482;8.770;2022-11-02T09:46:48;6.47;;;1.30;;
36385;SDS011;24125;47.482;8.770;2022-11-02T09:49:42;3.70;;;1.38;;
36385;SDS011;24125;47.482;8.770;2022-11-02T09:52:19;3.83;;;0.80;;
36385;SDS011;24125;47.482;8.770;2022-11-02T09:54:59;3.55;;;0.90;;
36385;SDS011;24125;47.482;8.770;2022-11-02T09:57:34;4.10;;;0.93;;
36385;SDS011;24125;47.482;8.770;2022-11-02T10:00:11;4.32;;;1.00;;
36385;SDS011;24125;47.482;8.770;2022-11-02T10:02:49;3.08;;;0.90;;
36385;SDS011;24125;47.482;8.770;2022-11-02T10:05:34;4.68;;;0.82;;
36385;SDS011;24125;47.482;8.770;2022-11-02T10:08:17;5.03;;;1.30;;
36385;SDS011;24125;47.482;8.770;2022-11-02T10:11:00;2.85;;;1.00;;
36385;SDS011;24125;47.482;8.770;2022-11-02T10:13:45;7.07;;;1.08;;
36385;SDS011;24125;47.482;8.770;2022-11-02T10:19:09;3.33;;;0.82;;
36385;SDS011;24125;47.482;8.770;2022-11-02T10:21:45;6.07;;;1.10;;
36385;SDS011;24125;47.482;8.770;2022-11-02T10:24:22;3.63;;;0.95;;
36385;SDS011;24125;47.482;8.770;2022-11-02T10:26:58;7.25;;;1.10;;
36385;SDS011;24125;47.482;8.770;2022-11-02T10:29:36;4.40;;;1.02;;
36385;SDS011;24125;47.482;8.770;2022-11-02T10:32:16;4.72;;;0.95;;
36385;SDS011;24125;47.482;8.770;2022-11-02T10:34:51;6.35;;;1.70;;
36385;SDS011;24125;47.482;8.770;2022-11-02T10:37:41;6.18;;;2.00;;
36385;SDS011;24125;47.482;8.770;2022-11-02T10:40:37;6.40;;;1.20;;
36385;SDS011;24125;47.482;8.770;2022-11-02T10:43:26;3.25;;;1.00;;
36385;SDS011;24125;47.482;8.770;2022-11-02T10:46:12;5.03;;;1.05;;
36385;SDS011;24125;47.482;8.770;2022-11-02T10:48:58;5.07;;;1.00;;
36385;SDS011;24125;47.482;8.770;2022-11-02T10:51:39;3.70;;;1.30;;
36385;SDS011;24125;47.482;8.770;2022-11-02T10:54:12;3.63;;;1.00;;
36385;SDS011;24125;47.482;8.770;2022-11-02T10:56:55;8.52;;;1.60;;
36385;SDS011;24125;47.482;8.770;2022-11-02T10:59:30;5.20;;;1.17;;
36385;SDS011;24125;47.482;8.770;2022-11-02T11:02:04;3.58;;;1.00;;
36385;SDS011;24125;47.482;8.770;2022-11-02T11:04:42;7.00;;;0.95;;
36385;SDS011;24125;47.482;8.770;2022-11-02T11:07:17;4.85;;;1.13;;
36385;SDS011;24125;47.482;8.770;2022-11-02T11:09:57;2.47;;;1.10;;
36385;SDS011;24125;47.482;8.770;2022-11-02T11:12:30;6.00;;;1.15;;
36385;SDS011;24125;47.482;8.770;2022-11-02T11:15:05;3.88;;;1.10;;
36385;SDS011;24125;47.482;8.770;2022-11-02T11:18:08;2.63;;;0.70;;
36385;SDS011;24125;47.482;8.770;2022-11-02T11:21:04;7.82;;;1.17;;
36385;SDS011;24125;47.482;8.770;2022-11-02T11:23:40;4.85;;;1.15;;
36385;SDS011;24125;47.482;8.770;2022-11-02T11:26:24;4.80;;;1.60;;
36385;SDS011;24125;47.482;8.770;2022-11-02T11:28:59;2.22;;;1.02;;
36385;SDS011;24125;47.482;8.770;2022-11-02T11:31:32;4.53;;;1.40;;
36385;SDS011;24125;47.482;8.770;2022-11-02T11:34:18;3.47;;;1.48;;
36385;SDS011;24125;47.482;8.770;2022-11-02T11:37:03;3.40;;;0.90;;
36385;SDS011;24125;47.482;8.770;2022-11-02T11:39:39;1.65;;;0.73;;
36385;SDS011;24125;47.482;8.770;2022-11-02T11:42:15;3.47;;;1.00;;
36385;SDS011;24125;47.482;8.770;2022-11-02T11:44:53;2.38;;;1.10;;
36385;SDS011;24125;47.482;8.770;2022-11-02T11:47:29;3.15;;;1.00;;
36385;SDS011;24125;47.482;8.770;2022-11-02T11:50:06;3.70;;;0.80;;
36385;SDS011;24125;47.482;8.770;2022-11-02T11:53:06;6.25;;;0.80;;
36385;SDS011;24125;47.482;8.770;2022-11-02T11:55:46;3.78;;;0.95;;
36385;SDS011;24125;47.482;8.770;2022-11-02T11:58:22;3.50;;;0.95;;
36385;SDS011;24125;47.482;8.770;2022-11-02T12:01:09;2.67;;;0.80;;
36385;SDS011;24125;47.482;8.770;2022-11-02T12:03:49;3.35;;;0.88;;
36385;SDS011;24125;47.482;8.770;2022-11-02T12:06:24;2.67;;;0.90;;
36385;SDS011;24125;47.482;8.770;2022-11-02T12:11:47;3.08;;;1.00;;
36385;SDS011;24125;47.482;8.770;2022-11-02T12:14:33;5.70;;;0.80;;
36385;SDS011;24125;47.482;8.770;2022-11-02T12:17:29;4.28;;;0.93;;
36385;SDS011;24125;47.482;8.770;2022-11-02T12:20:15;2.55;;;0.93;;
36385;SDS011;24125;47.482;8.770;2022-11-02T12:23:03;3.83;;;1.10;;
36385;SDS011;24125;47.482;8.770;2022-11-02T12:25:49;4.35;;;1.00;;
36385;SDS011;24125;47.482;8.770;2022-11-02T12:28:39;4.53;;;1.13;;
36385;SDS011;24125;47.482;8.770;2022-11-02T12:31:18;3.05;;;0.90;;
36385;SDS011;24125;47.482;8.770;2022-11-02T12:34:06;4.68;;;0.95;;
36385;SDS011;24125;47.482;8.770;2022-11-02T12:36:51;3.13;;;1.13;;
36385;SDS011;24125;47.482;8.770;2022-11-02T12:40:00;4.43;;;0.85;;
36385;SDS011;24125;47.482;8.770;2022-11-02T12:42:44;3.10;;;1.60;;
36385;SDS011;24125;47.482;8.770;2022-11-02T12:45:24;3.13;;;0.90;;
36385;SDS011;24125;47.482;8.770;2022-11-02T12:48:07;5.07;;;1.15;;
36385;SDS011;24125;47.482;8.770;2022-11-02T12:50:52;5.25;;;1.42;;
36385;SDS011;24125;47.482;8.770;2022-11-02T12:53:36;2.15;;;1.10;;
36385;SDS011;24125;47.482;8.770;2022-11-02T12:56:17;1.88;;;0.82;;
36385;SDS011;24125;47.482;8.770;2022-11-02T12:58:53;1.90;;;0.90;;
36385;SDS011;24125;47.482;8.770;2022-11-02T13:01:29;3.42;;;0.88;;
36385;SDS011;24125;47.482;8.770;2022-11-02T13:04:08;2.30;;;0.70;;
36385;SDS011;24125;47.482;8.770;2022-11-02T13:06:47;3.90;;;1.23;;
36385;SDS011;24125;47.482;8.770;2022-11-02T13:09:23;4.25;;;1.05;;
36385;SDS011;24125;47.482;8.770;2022-11-02T13:12:02;2.03;;;0.73;;
36385;SDS011;24125;47.482;8.770;2022-11-02T13:14:40;5.20;;;1.10;;
36385;SDS011;24125;47.482;8.770;2022-11-02T13:17:17;2.13;;;0.90;;
36385;SDS011;24125;47.482;8.770;2022-11-02T13:19:54;2.40;;;0.70;;
36385;SDS011;24125;47.482;8.770;2022-11-02T13:22:32;3.72;;;0.93;;
36385;SDS011;24125;47.482;8.770;2022-11-02T13:25:12;5.38;;;1.42;;
36385;SDS011;24125;47.482;8.770;2022-11-02T13:27:51;4.03;;;0.80;;
36385;SDS011;24125;47.482;8.770;2022-11-02T13:30:31;2.63;;;0.77;;
36385;SDS011;24125;47.482;8.770;2022-11-02T13:33:10;4.57;;;1.02;;
36385;SDS011;24125;47.482;8.770;2022-11-02T13:35:47;1.77;;;0.90;;
36385;SDS011;24125;47.482;8.770;2022-11-02T13:38:25;2.03;;;0.70;;
36385;SDS011;24125;47.482;8.770;2022-11-02T13:41:06;2.55;;;0.73;;
36385;SDS011;24125;47.482;8.770;2022-11-02T13:44:03;2.88;;;0.70;;
36385;SDS011;24125;47.482;8.770;2022-11-02T13:47:07;1.25;;;0.70;;
36385;SDS011;24125;47.482;8.770;2022-11-02T13:49:53;2.80;;;0.73;;
36385;SDS011;24125;47.482;8.770;2022-11-02T13:52:29;1.55;;;0.68;;
36385;SDS011;24125;47.482;8.770;2022-11-02T13:55:09;3.28;;;0.68;;
36385;SDS011;24125;47.482;8.770;2022-11-02T13:57:51;2.90;;;0.63;;
36385;SDS011;24125;47.482;8.770;2022-11-02T14:00:27;6.18;;;1.05;;
36385;SDS011;24125;47.482;8.770;2022-11-02T14:03:04;2.35;;;0.73;;
36385;SDS011;24125;47.482;8.770;2022-11-02T14:05:47;3.38;;;0.60;;
36385;SDS011;24125;47.482;8.770;2022-11-02T14:08:27;3.25;;;0.90;;
36385;SDS011;24125;47.482;8.770;2022-11-02T14:11:23;5.30;;;1.00;;
36385;SDS011;24125;47.482;8.770;2022-11-02T14:17:13;1.85;;;0.73;;
36385;SDS011;24125;47.482;8.770;2022-11-02T14:19:49;4.60;;;0.80;;
36385;SDS011;24125;47.482;8.770;2022-11-02T14:22:28;2.30;;;0.63;;
36385;SDS011;24125;47.482;8.770;2022-11-02T14:25:15;3.33;;;0.70;;
36385;SDS011;24125;47.482;8.770;2022-11-02T14:27:49;3.78;;;0.90;;
36385;SDS011;24125;47.482;8.770;2022-11-02T14:30:39;2.50;;;0.70;;
36385;SDS011;24125;47.482;8.770;2022-11-02T14:33:29;1.15;;;0.55;;
36385;SDS011;24125;47.482;8.770;2022-11-02T14:36:17;2.35;;;0.60;;
36385;SDS011;24125;47.482;8.770;2022-11-02T14:39:03;3.42;;;0.52;;
36385;SDS011;24125;47.482;8.770;2022-11-02T14:42:04;1.80;;;0.70;;
36385;SDS011;24125;47.482;8.770;2022-11-02T14:45:06;2.65;;;0.90;;
36385;SDS011;24125;47.482;8.770;2022-11-02T14:47:54;1.35;;;0.60;;
36385;SDS011;24125;47.482;8.770;2022-11-02T14:50:29;2.72;;;0.73;;
36385;SDS011;24125;47.482;8.770;2022-11-02T14:53:04;10.40;;;0.82;;
36385;SDS011;24125;47.482;8.770;2022-11-02T14:55:41;1.95;;;0.80;;
36385;SDS011;24125;47.482;8.770;2022-11-02T14:58:26;3.70;;;0.80;;
36385;SDS011;24125;47.482;8.770;2022-11-02T15:01:04;3.75;;;1.00;;
36385;SDS011;24125;47.482;8.770;2022-11-02T15:03:43;3.03;;;0.77;;
36385;SDS011;24125;47.482;8.770;2022-11-02T15:06:19;3.15;;;0.85;;
36385;SDS011;24125;47.482;8.770;2022-11-02T15:08:54;3.05;;;0.93;;
36385;SDS011;24125;47.482;8.770;2022-11-02T15:14:30;6.75;;;1.10;;
36385;SDS011;24125;47.482;8.770;2022-11-02T15:20:25;3.30;;;1.00;;
36385;SDS011;24125;47.482;8.770;2022-11-02T15:23:10;4.35;;;1.02;;
36385;SDS011;24125;47.482;8.770;2022-11-02T15:26:03;2.78;;;0.77;;
36385;SDS011;24125;47.482;8.770;2022-11-02T15:28:39;3.85;;;1.10;;
36385;SDS011;24125;47.482;8.770;2022-11-02T15:31:16;2.13;;;0.80;;
36385;SDS011;24125;47.482;8.770;2022-11-02T15:33:56;2.25;;;0.77;;
36385;SDS011;24125;47.482;8.770;2022-11-02T15:36:32;2.47;;;0.80;;
36385;SDS011;24125;47.482;8.770;2022-11-02T15:39:08;4.28;;;1.10;;
36385;SDS011;24125;47.482;8.770;2022-11-02T15:41:43;1.60;;;0.77;;
36385;SDS011;24125;47.482;8.770;2022-11-02T15:47:28;3.25;;;1.00;;
36385;SDS011;24125;47.482;8.770;2022-11-02T15:50:26;4.72;;;1.45;;
36385;SDS011;24125;47.482;8.770;2022-11-02T15:53:12;3.65;;;1.48;;
36385;SDS011;24125;47.482;8.770;2022-11-02T15:55:59;2.88;;;1.30;;
36385;SDS011;24125;47.482;8.770;2022-11-02T15:58:45;2.42;;;0.90;;
36385;SDS011;24125;47.482;8.770;2022-11-02T16:01:34;4.65;;;1.42;;
36385;SDS011;24125;47.482;8.770;2022-11-02T16:04:10;2.83;;;1.10;;
36385;SDS011;24125;47.482;8.770;2022-11-02T16:06:51;5.63;;;1.27;;
36385;SDS011;24125;47.482;8.770;2022-11-02T16:09:29;2.53;;;1.38;;
36385;SDS011;24125;47.482;8.770;2022-11-02T16:12:07;7.43;;;1.45;;
36385;SDS011;24125;47.482;8.770;2022-11-02T16:14:43;6.25;;;1.50;;